createdAt,value
2019-06-07T00:07:36.021Z,180.00
2019-06-07T00:17:36.241Z,188.45
2019-06-07T00:27:36.054Z,290.00
2019-06-07T00:37:36.020Z,303.52
2019-06-07T00:47:36.086Z,315.00
2019-06-07T00:57:36.052Z,315.00
2019-06-07T01:07:36.002Z,315.00
2019-06-07T01:17:50.089Z,312.35
2019-06-07T01:27:36.063Z,221.67
2019-06-07T01:37:36.101Z,219.46
2019-06-07T01:47:36.139Z,237.42
2019-06-07T01:57:47.314Z,229.88
2019-06-07T02:07:36.080Z,211.38
2019-06-07T02:17:36.086Z,244.68
2019-06-07T02:27:36.060Z,256.64
2019-06-07T02:37:37.204Z,253.24
2019-06-07T02:47:38.173Z,258.63
2019-06-07T02:57:40.913Z,214.54
2019-06-07T03:07:39.142Z,294.63
2019-06-07T03:17:38.211Z,210.78
2019-06-07T03:27:44.185Z,219.46
2019-06-07T03:37:40.718Z,176.73
2019-06-07T03:47:39.183Z,256.79
2019-06-07T03:58:23.774Z,231.56
2019-06-07T04:07:38.783Z,235.58
2019-06-07T04:17:37.097Z,278.88
2019-06-07T04:27:39.298Z,296.55
2019-06-07T04:37:39.311Z,254.81
2019-06-07T04:47:37.247Z,249.01
2019-06-07T04:57:37.592Z,246.62
2019-06-07T05:07:37.800Z,277.52
2019-06-07T05:17:37.193Z,249.19
2019-06-07T05:27:38.670Z,224.81
2019-06-07T05:37:37.962Z,210.35
2019-06-07T05:47:40.284Z,221.64
2019-06-07T05:57:38.376Z,214.28
2019-06-07T06:07:38.849Z,232.74
2019-06-07T06:17:37.770Z,210.35
2019-06-07T06:28:05.844Z,258.05
2019-06-07T06:37:40.405Z,226.44
2019-06-07T06:47:36.149Z,233.56
2019-06-07T06:57:36.092Z,241.66
2019-06-07T07:07:36.197Z,213.49
2019-06-07T07:17:50.644Z,238.86
2019-06-07T07:27:36.173Z,218.83
2019-06-07T07:37:36.149Z,228.39
2019-06-07T07:47:55.860Z,227.83
2019-06-07T07:57:36.690Z,243.39
2019-06-07T08:07:36.157Z,229.84
2019-06-07T08:17:36.208Z,275.93
2019-06-07T08:27:36.171Z,225.51
2019-06-07T08:38:13.990Z,206.86
2019-06-07T08:47:36.240Z,210.93
2019-06-07T08:57:36.168Z,235.16
2019-06-07T09:07:36.157Z,219.44
2019-06-07T09:17:36.215Z,228.34
2019-06-07T09:27:36.805Z,243.26
2019-06-07T09:38:04.166Z,277.24
2019-06-07T09:47:36.218Z,236.81
2019-06-07T09:57:37.926Z,222.63
2019-06-07T10:07:36.244Z,236.26
2019-06-07T10:17:36.233Z,235.28
2019-06-07T10:27:36.212Z,210.32
2019-06-07T10:37:36.264Z,253.26
2019-06-07T10:47:36.223Z,261.76
2019-06-07T10:57:36.194Z,255.58
2019-06-07T11:07:36.310Z,313.43
2019-06-07T11:17:36.266Z,243.21
2019-06-07T11:27:38.059Z,237.44
2019-06-07T11:37:36.361Z,332.39
2019-06-07T11:47:36.254Z,344.18
2019-06-07T11:57:36.200Z,346.11
2019-06-07T12:07:36.264Z,303.88
2019-06-07T12:17:36.223Z,353.76
2019-06-07T12:27:36.202Z,345.44
2019-06-07T12:37:43.664Z,345.09
2019-06-07T12:47:36.244Z,351.61
2019-06-07T12:57:36.305Z,344.09
2019-06-07T13:07:36.249Z,346.90
2019-06-07T13:17:36.225Z,348.89
2019-06-07T13:27:36.204Z,350.38
2019-06-07T13:37:36.132Z,334.87
2019-06-07T13:47:36.163Z,351.23
2019-06-07T13:57:39.897Z,352.91
2019-06-07T14:07:37.204Z,351.36
2019-06-07T14:17:36.150Z,347.37
2019-06-07T14:27:36.210Z,330.85
2019-06-07T14:37:36.185Z,337.52
2019-06-07T14:47:36.158Z,310.26
2019-06-07T14:57:36.180Z,349.52
2019-06-07T15:07:36.109Z,357.06
2019-06-07T15:17:36.208Z,354.98
2019-06-07T15:27:37.478Z,352.03
2019-06-07T15:37:36.695Z,347.23
2019-06-07T15:47:40.659Z,349.96
2019-06-07T15:57:37.266Z,338.00
2019-06-07T16:07:36.301Z,306.56
2019-06-07T16:17:37.236Z,349.99
2019-06-07T16:27:36.803Z,347.61
2019-06-07T16:37:36.324Z,348.50
2019-06-07T16:47:38.724Z,343.87
2019-06-07T16:57:36.673Z,194.83
2019-06-07T17:07:38.155Z,235.56
2019-06-07T17:17:36.128Z,272.37
2019-06-07T17:27:36.238Z,321.15
2019-06-07T17:37:36.203Z,331.33
2019-06-07T17:47:36.162Z,352.62
2019-06-07T17:57:36.207Z,344.42
2019-06-07T18:07:36.189Z,352.97
2019-06-07T18:17:36.260Z,351.87
2019-06-07T18:27:36.225Z,349.59
2019-06-07T18:37:36.194Z,347.73
2019-06-07T18:47:36.053Z,356.70
2019-06-07T18:57:36.134Z,350.49
2019-06-07T19:07:36.200Z,355.14
2019-06-07T19:17:36.173Z,354.27
2019-06-07T19:27:36.230Z,348.05
2019-06-07T19:37:36.197Z,342.84
2019-06-07T19:47:36.170Z,353.39
2019-06-07T19:57:36.113Z,348.06
2019-06-07T20:07:36.204Z,354.03
2019-06-07T20:17:36.171Z,346.00
2019-06-07T20:27:37.273Z,349.92
2019-06-07T20:37:36.207Z,352.44
2019-06-07T20:47:36.174Z,347.88
2019-06-07T20:57:36.140Z,350.56
2019-06-07T21:07:36.185Z,350.42
2019-06-07T21:17:36.199Z,357.05
2019-06-07T21:27:36.122Z,352.70
2019-06-07T21:37:36.216Z,356.86
2019-06-07T21:47:36.179Z,350.18
2019-06-07T21:57:36.133Z,351.90
2019-06-07T22:07:36.215Z,349.94
2019-06-07T22:17:36.466Z,351.73
2019-06-07T22:27:36.137Z,348.34
2019-06-07T22:37:36.248Z,348.35
2019-06-07T22:47:36.158Z,263.48
2019-06-07T22:57:36.146Z,345.65
2019-06-07T23:07:36.938Z,347.63
2019-06-07T23:17:36.993Z,347.02
2019-06-07T23:27:36.142Z,348.30
2019-06-07T23:37:36.120Z,344.48
2019-06-07T23:47:36.218Z,347.63
2019-06-07T23:57:36.133Z,351.78
